Impacts METAR Board INFO
IDs:

KSLC - Salt Lake City Intl, UT, US

Updated at: 0453 UTC 18 Feb 2018
Potential Impact None Slight Moderate High
Time17/16Z 17/17Z 17/18Z 17/19Z 17/20Z 17/21Z 17/22Z 17/23Z 18/00Z 18/01Z 18/02Z 18/03Z 18/04Z
VIS10 10 10 10 10 10 10 10 10 10 10 10 10
CIG-- -- -- -- -- -- -- -- 210 100 200 -- --
CoverSCTFEWCLRCLRFEWFEWSCTSCTBKNBKNBKNSCTSCT
FltCatVFRVFRVFRVFRVFRVFRVFRVFRVFRVFRVFRVFRVFR
WX--------------------------
WDir130140160170180170180180170170170170180
WSpd9 10 14 15 19 18 16 14 18 13 14 14 14
WGst-- -- -- -- 26 23 27 -- 24 -- 21 22 --
Raw hourly METARs
KSLC 171554Z 13009KT 10SM FEW070 FEW140 SCT220 03/M08 A3020 RMK AO2 SLP230 T00281078
KSLC 171654Z 14010KT 10SM FEW070 FEW160 06/M08 A3021 RMK AO2 SLP228 T00561078
KSLC 171754Z 16014KT 10SM CLR 08/M08 A3018 RMK AO2 SLP216 T00831083 10083 21006 58005
KSLC 171854Z 17015KT 10SM CLR 10/M09 A3013 RMK AO2 SLP200 T01001089
KSLC 171954Z 18019G26KT 10SM FEW130 12/M08 A3008 RMK AO2 PK WND 18026/1954 SLP179 T01171078
KSLC 172054Z 17018G23KT 10SM FEW130 FEW230 13/M09 A3003 RMK AO2 PK WND 17029/2014 SLP160 ACSL DSNT SE AND SW T01281089 58045
KSLC 172154Z 18016G27KT 10SM FEW130 SCT220 14/M09 A2999 RMK AO2 PK WND 19027/2115 SLP146 ACSL DSNT ALQDS T01391089
KSLC 172254Z 18014KT 10SM FEW130 SCT220 15/M09 A2997 RMK AO2 SLP136 ACSL DSNT ALQDS T01501089
KSLC 172354Z 17018G24KT 10SM SCT130 BKN210 15/M09 A2992 RMK AO2 PK WND 17026/2326 SLP122 ACSL DSNT ALQDS T01501094 10150 20083 58031
KSLC 180054Z 17013KT 10SM BKN100 BKN200 14/M10 A2990 RMK AO2 SLP112 ACSL DSNT ALQDS T01441100
KSLC 180154Z 17014G21KT 10SM SCT100 BKN200 13/M10 A2986 RMK AO2 SLP103 T01331100
KSLC 180254Z 17014G22KT 10SM SCT100 SCT200 13/M09 A2984 RMK AO2 SLP091 T01331094 58027
KSLC 180354Z 18014KT 10SM SCT100 SCT200 13/M09 A2980 RMK AO2 SLP076 T01281089